sensor_id;sensor_type;location;lat;lon;timestamp;temperature;humidity
71206;SHT31;58935;54.498;18.544;2022-08-19T00:01:25;23.11;78.95
71206;SHT31;58935;54.498;18.544;2022-08-19T00:03:54;23.13;78.93
71206;SHT31;58935;54.498;18.544;2022-08-19T00:06:22;23.15;78.90
71206;SHT31;58935;54.498;18.544;2022-08-19T00:08:48;23.17;78.81
71206;SHT31;58935;54.498;18.544;2022-08-19T00:11:13;23.17;78.84
71206;SHT31;58935;54.498;18.544;2022-08-19T00:13:39;23.17;78.75
71206;SHT31;58935;54.498;18.544;2022-08-19T00:16:05;23.17;78.61
71206;SHT31;58935;54.498;18.544;2022-08-19T00:18:32;23.16;78.55
71206;SHT31;58935;54.498;18.544;2022-08-19T00:20:59;23.13;78.66
71206;SHT31;58935;54.498;18.544;2022-08-19T00:23:25;23.12;78.70
71206;SHT31;58935;54.498;18.544;2022-08-19T00:25:52;23.13;78.75
71206;SHT31;58935;54.498;18.544;2022-08-19T00:28:18;23.13;78.76
71206;SHT31;58935;54.498;18.544;2022-08-19T00:30:45;23.12;78.88
71206;SHT31;58935;54.498;18.544;2022-08-19T00:33:11;23.13;78.96
71206;SHT31;58935;54.498;18.544;2022-08-19T00:35:38;23.12;79.04
71206;SHT31;58935;54.498;18.544;2022-08-19T00:38:04;23.13;79.07
71206;SHT31;58935;54.498;18.544;2022-08-19T00:40:31;23.14;79.16
71206;SHT31;58935;54.498;18.544;2022-08-19T00:42:58;23.13;79.26
71206;SHT31;58935;54.498;18.544;2022-08-19T00:45:28;23.13;79.24
71206;SHT31;58935;54.498;18.544;2022-08-19T00:47:56;23.14;79.28
71206;SHT31;58935;54.498;18.544;2022-08-19T00:50:22;23.15;79.30
71206;SHT31;58935;54.498;18.544;2022-08-19T00:52:50;23.18;79.40
71206;SHT31;58935;54.498;18.544;2022-08-19T00:55:18;23.21;79.36
71206;SHT31;58935;54.498;18.544;2022-08-19T00:57:53;23.22;79.38
71206;SHT31;58935;54.498;18.544;2022-08-19T01:00:23;23.22;79.31
71206;SHT31;58935;54.498;18.544;2022-08-19T01:02:52;23.22;79.31
71206;SHT31;58935;54.498;18.544;2022-08-19T01:05:21;23.24;79.40
71206;SHT31;58935;54.498;18.544;2022-08-19T01:07:52;23.27;79.31
71206;SHT31;58935;54.498;18.544;2022-08-19T01:10:22;23.29;79.14
71206;SHT31;58935;54.498;18.544;2022-08-19T01:12:52;23.28;79.08
71206;SHT31;58935;54.498;18.544;2022-08-19T01:15:21;23.27;79.01
71206;SHT31;58935;54.498;18.544;2022-08-19T01:17:56;23.27;79.07
71206;SHT31;58935;54.498;18.544;2022-08-19T01:20:25;23.28;79.00
71206;SHT31;58935;54.498;18.544;2022-08-19T01:22:52;23.29;78.99
71206;SHT31;58935;54.498;18.544;2022-08-19T01:25:24;23.30;78.95
71206;SHT31;58935;54.498;18.544;2022-08-19T01:27:57;23.29;78.90
71206;SHT31;58935;54.498;18.544;2022-08-19T01:30:27;23.28;78.81
71206;SHT31;58935;54.498;18.544;2022-08-19T01:32:57;23.26;78.80
71206;SHT31;58935;54.498;18.544;2022-08-19T01:35:25;23.23;78.83
71206;SHT31;58935;54.498;18.544;2022-08-19T01:37:55;23.20;78.90
71206;SHT31;58935;54.498;18.544;2022-08-19T01:40:26;23.17;78.90
71206;SHT31;58935;54.498;18.544;2022-08-19T01:42:56;23.15;78.92
71206;SHT31;58935;54.498;18.544;2022-08-19T01:45:24;23.14;79.04
71206;SHT31;58935;54.498;18.544;2022-08-19T01:47:53;23.10;79.09
71206;SHT31;58935;54.498;18.544;2022-08-19T01:50:19;23.08;79.18
71206;SHT31;58935;54.498;18.544;2022-08-19T01:52:45;23.07;79.21
71206;SHT31;58935;54.498;18.544;2022-08-19T01:55:13;23.05;79.24
71206;SHT31;58935;54.498;18.544;2022-08-19T01:57:44;23.04;79.31
71206;SHT31;58935;54.498;18.544;2022-08-19T02:00:18;23.03;79.36
71206;SHT31;58935;54.498;18.544;2022-08-19T02:02:47;23.01;79.57
71206;SHT31;58935;54.498;18.544;2022-08-19T02:05:12;23.00;79.56
71206;SHT31;58935;54.498;18.544;2022-08-19T02:07:39;22.99;79.60
71206;SHT31;58935;54.498;18.544;2022-08-19T02:10:08;22.96;79.66
71206;SHT31;58935;54.498;18.544;2022-08-19T02:12:38;22.97;79.68
71206;SHT31;58935;54.498;18.544;2022-08-19T02:15:04;22.95;79.73
71206;SHT31;58935;54.498;18.544;2022-08-19T02:17:31;22.93;79.81
71206;SHT31;58935;54.498;18.544;2022-08-19T02:19:57;22.93;79.87
71206;SHT31;58935;54.498;18.544;2022-08-19T02:22:23;22.92;79.89
71206;SHT31;58935;54.498;18.544;2022-08-19T02:24:51;22.90;79.94
71206;SHT31;58935;54.498;18.544;2022-08-19T02:27:18;22.89;79.98
71206;SHT31;58935;54.498;18.544;2022-08-19T02:29:45;22.90;79.99
71206;SHT31;58935;54.498;18.544;2022-08-19T02:32:12;22.88;79.90
71206;SHT31;58935;54.498;18.544;2022-08-19T02:34:38;22.85;79.95
71206;SHT31;58935;54.498;18.544;2022-08-19T02:37:04;22.86;80.05
71206;SHT31;58935;54.498;18.544;2022-08-19T02:39:30;22.89;79.87
71206;SHT31;58935;54.498;18.544;2022-08-19T02:41:55;22.88;79.68
71206;SHT31;58935;54.498;18.544;2022-08-19T02:44:21;22.87;79.58
71206;SHT31;58935;54.498;18.544;2022-08-19T02:46:48;22.85;79.40
71206;SHT31;58935;54.498;18.544;2022-08-19T02:49:15;22.81;79.27
71206;SHT31;58935;54.498;18.544;2022-08-19T02:51:42;22.77;79.22
71206;SHT31;58935;54.498;18.544;2022-08-19T02:54:11;22.73;79.48
71206;SHT31;58935;54.498;18.544;2022-08-19T02:56:38;22.72;79.44
71206;SHT31;58935;54.498;18.544;2022-08-19T02:59:06;22.67;79.49
71206;SHT31;58935;54.498;18.544;2022-08-19T03:01:33;22.62;79.53
71206;SHT31;58935;54.498;18.544;2022-08-19T03:04:00;22.57;79.62
71206;SHT31;58935;54.498;18.544;2022-08-19T03:06:29;22.56;79.60
71206;SHT31;58935;54.498;18.544;2022-08-19T03:08:56;22.57;79.25
71206;SHT31;58935;54.498;18.544;2022-08-19T03:11:23;22.59;79.20
71206;SHT31;58935;54.498;18.544;2022-08-19T03:13:54;22.63;79.36
71206;SHT31;58935;54.498;18.544;2022-08-19T03:16:21;22.66;79.37
71206;SHT31;58935;54.498;18.544;2022-08-19T03:18:49;22.64;79.35
71206;SHT31;58935;54.498;18.544;2022-08-19T03:21:19;22.62;79.42
71206;SHT31;58935;54.498;18.544;2022-08-19T03:23:48;22.61;79.33
71206;SHT31;58935;54.498;18.544;2022-08-19T03:26:15;22.57;79.44
71206;SHT31;58935;54.498;18.544;2022-08-19T03:28:42;22.56;79.47
71206;SHT31;58935;54.498;18.544;2022-08-19T03:31:14;22.57;79.58
71206;SHT31;58935;54.498;18.544;2022-08-19T03:33:44;22.58;79.54
71206;SHT31;58935;54.498;18.544;2022-08-19T03:36:12;22.57;79.59
71206;SHT31;58935;54.498;18.544;2022-08-19T03:38:44;22.58;79.65
71206;SHT31;58935;54.498;18.544;2022-08-19T03:41:14;22.60;79.65
71206;SHT31;58935;54.498;18.544;2022-08-19T03:43:44;22.63;79.69
71206;SHT31;58935;54.498;18.544;2022-08-19T03:46:13;22.63;79.65
71206;SHT31;58935;54.498;18.544;2022-08-19T03:48:43;22.65;79.71
71206;SHT31;58935;54.498;18.544;2022-08-19T03:53:43;22.69;79.85
71206;SHT31;58935;54.498;18.544;2022-08-19T03:56:09;22.74;79.69
71206;SHT31;58935;54.498;18.544;2022-08-19T03:58:35;22.75;79.57
71206;SHT31;58935;54.498;18.544;2022-08-19T04:01:02;22.74;79.52
71206;SHT31;58935;54.498;18.544;2022-08-19T04:03:34;22.74;79.74
71206;SHT31;58935;54.498;18.544;2022-08-19T04:08:42;22.84;79.67
71206;SHT31;58935;54.498;18.544;2022-08-19T04:11:11;22.90;79.59
71206;SHT31;58935;54.498;18.544;2022-08-19T04:13:41;22.95;79.36
71206;SHT31;58935;54.498;18.544;2022-08-19T04:16:08;22.98;79.17
71206;SHT31;58935;54.498;18.544;2022-08-19T04:18:35;23.01;78.90
71206;SHT31;58935;54.498;18.544;2022-08-19T04:21:03;23.03;78.82
71206;SHT31;58935;54.498;18.544;2022-08-19T04:23:30;23.04;78.66
71206;SHT31;58935;54.498;18.544;2022-08-19T04:25:57;23.04;78.61
71206;SHT31;58935;54.498;18.544;2022-08-19T04:28:22;23.06;78.54
71206;SHT31;58935;54.498;18.544;2022-08-19T04:30:50;23.08;78.58
71206;SHT31;58935;54.498;18.544;2022-08-19T04:33:20;23.09;78.77
71206;SHT31;58935;54.498;18.544;2022-08-19T04:35:49;23.10;78.86
71206;SHT31;58935;54.498;18.544;2022-08-19T04:38:17;23.16;78.86
71206;SHT31;58935;54.498;18.544;2022-08-19T04:40:48;23.24;78.79
71206;SHT31;58935;54.498;18.544;2022-08-19T04:43:19;23.28;78.67
71206;SHT31;58935;54.498;18.544;2022-08-19T04:45:44;23.34;78.47
71206;SHT31;58935;54.498;18.544;2022-08-19T04:48:11;23.39;78.40
71206;SHT31;58935;54.498;18.544;2022-08-19T04:50:41;23.43;78.41
71206;SHT31;58935;54.498;18.544;2022-08-19T04:53:08;23.49;78.41
71206;SHT31;58935;54.498;18.544;2022-08-19T04:55:37;23.57;78.41
71206;SHT31;58935;54.498;18.544;2022-08-19T04:58:05;23.64;78.37
71206;SHT31;58935;54.498;18.544;2022-08-19T05:00:31;23.70;78.31
71206;SHT31;58935;54.498;18.544;2022-08-19T05:02:57;23.76;78.24
71206;SHT31;58935;54.498;18.544;2022-08-19T05:05:22;23.81;78.12
71206;SHT31;58935;54.498;18.544;2022-08-19T05:07:47;23.89;77.95
71206;SHT31;58935;54.498;18.544;2022-08-19T05:10:13;23.94;77.79
71206;SHT31;58935;54.498;18.544;2022-08-19T05:12:38;24.00;77.77
71206;SHT31;58935;54.498;18.544;2022-08-19T05:15:04;24.07;77.57
71206;SHT31;58935;54.498;18.544;2022-08-19T05:17:33;24.13;77.31
71206;SHT31;58935;54.498;18.544;2022-08-19T05:19:59;24.18;76.59
71206;SHT31;58935;54.498;18.544;2022-08-19T05:22:29;24.23;76.62
71206;SHT31;58935;54.498;18.544;2022-08-19T05:24:58;24.28;76.71
71206;SHT31;58935;54.498;18.544;2022-08-19T05:27:25;24.33;76.42
71206;SHT31;58935;54.498;18.544;2022-08-19T05:29:51;24.38;75.70
71206;SHT31;58935;54.498;18.544;2022-08-19T05:32:16;24.42;75.50
71206;SHT31;58935;54.498;18.544;2022-08-19T05:34:42;24.49;75.28
71206;SHT31;58935;54.498;18.544;2022-08-19T05:37:07;24.56;75.02
71206;SHT31;58935;54.498;18.544;2022-08-19T05:39:34;24.64;74.39
71206;SHT31;58935;54.498;18.544;2022-08-19T05:42:03;24.69;73.65
71206;SHT31;58935;54.498;18.544;2022-08-19T05:44:33;24.74;73.06
71206;SHT31;58935;54.498;18.544;2022-08-19T05:47:04;24.79;72.72
71206;SHT31;58935;54.498;18.544;2022-08-19T05:49:33;24.85;72.36
71206;SHT31;58935;54.498;18.544;2022-08-19T05:52:02;24.91;72.38
71206;SHT31;58935;54.498;18.544;2022-08-19T05:54:31;24.98;71.90
71206;SHT31;58935;54.498;18.544;2022-08-19T05:56:57;25.02;71.69
71206;SHT31;58935;54.498;18.544;2022-08-19T05:59:23;25.06;71.23
71206;SHT31;58935;54.498;18.544;2022-08-19T06:01:50;25.05;70.88
71206;SHT31;58935;54.498;18.544;2022-08-19T06:04:18;25.04;71.01
71206;SHT31;58935;54.498;18.544;2022-08-19T06:06:46;25.04;71.31
71206;SHT31;58935;54.498;18.544;2022-08-19T06:09:14;25.05;71.32
71206;SHT31;58935;54.498;18.544;2022-08-19T06:11:41;25.09;71.37
71206;SHT31;58935;54.498;18.544;2022-08-19T06:14:13;25.12;71.25
71206;SHT31;58935;54.498;18.544;2022-08-19T06:16:43;25.15;70.94
71206;SHT31;58935;54.498;18.544;2022-08-19T06:19:11;25.16;70.74
71206;SHT31;58935;54.498;18.544;2022-08-19T06:21:42;25.20;70.75
71206;SHT31;58935;54.498;18.544;2022-08-19T06:24:12;25.26;70.64
71206;SHT31;58935;54.498;18.544;2022-08-19T06:26:41;25.33;70.45
71206;SHT31;58935;54.498;18.544;2022-08-19T06:29:10;25.41;70.03
71206;SHT31;58935;54.498;18.544;2022-08-19T06:31:40;25.45;69.70
71206;SHT31;58935;54.498;18.544;2022-08-19T06:34:09;25.50;69.68
71206;SHT31;58935;54.498;18.544;2022-08-19T06:36:36;25.54;69.45
71206;SHT31;58935;54.498;18.544;2022-08-19T06:39:09;25.56;69.18
71206;SHT31;58935;54.498;18.544;2022-08-19T06:41:40;25.57;69.14
71206;SHT31;58935;54.498;18.544;2022-08-19T06:44:09;25.59;68.99
71206;SHT31;58935;54.498;18.544;2022-08-19T06:46:37;25.62;68.99
71206;SHT31;58935;54.498;18.544;2022-08-19T06:49:04;25.64;68.65
71206;SHT31;58935;54.498;18.544;2022-08-19T06:51:31;25.65;68.59
71206;SHT31;58935;54.498;18.544;2022-08-19T06:53:57;25.67;68.47
71206;SHT31;58935;54.498;18.544;2022-08-19T06:56:28;25.70;68.44
71206;SHT31;58935;54.498;18.544;2022-08-19T06:59:07;25.75;68.24
71206;SHT31;58935;54.498;18.544;2022-08-19T07:01:36;25.79;67.90
71206;SHT31;58935;54.498;18.544;2022-08-19T07:04:06;25.83;67.76
71206;SHT31;58935;54.498;18.544;2022-08-19T07:06:33;25.86;67.53
71206;SHT31;58935;54.498;18.544;2022-08-19T07:09:00;25.89;67.38
71206;SHT31;58935;54.498;18.544;2022-08-19T07:11:26;25.92;67.20
71206;SHT31;58935;54.498;18.544;2022-08-19T07:13:52;25.95;67.07
71206;SHT31;58935;54.498;18.544;2022-08-19T07:16:18;25.99;67.03
71206;SHT31;58935;54.498;18.544;2022-08-19T07:18:46;26.02;66.90
71206;SHT31;58935;54.498;18.544;2022-08-19T07:21:15;26.09;66.72
71206;SHT31;58935;54.498;18.544;2022-08-19T07:23:45;26.14;66.55
71206;SHT31;58935;54.498;18.544;2022-08-19T07:26:12;26.20;66.33
71206;SHT31;58935;54.498;18.544;2022-08-19T07:28:44;26.25;66.21
71206;SHT31;58935;54.498;18.544;2022-08-19T07:31:11;26.31;66.00
71206;SHT31;58935;54.498;18.544;2022-08-19T07:33:40;26.37;66.09
71206;SHT31;58935;54.498;18.544;2022-08-19T07:36:08;26.42;66.09
71206;SHT31;58935;54.498;18.544;2022-08-19T07:38:36;26.48;65.88
71206;SHT31;58935;54.498;18.544;2022-08-19T07:41:04;26.52;65.70
71206;SHT31;58935;54.498;18.544;2022-08-19T07:43:31;26.57;65.67
71206;SHT31;58935;54.498;18.544;2022-08-19T07:45:57;26.61;65.46
71206;SHT31;58935;54.498;18.544;2022-08-19T07:48:23;26.66;65.23
71206;SHT31;58935;54.498;18.544;2022-08-19T07:50:52;26.68;64.96
71206;SHT31;58935;54.498;18.544;2022-08-19T07:53:24;26.70;65.05
71206;SHT31;58935;54.498;18.544;2022-08-19T07:55:50;26.75;64.90
71206;SHT31;58935;54.498;18.544;2022-08-19T07:58:19;26.81;64.81
71206;SHT31;58935;54.498;18.544;2022-08-19T08:00:48;26.83;64.90
71206;SHT31;58935;54.498;18.544;2022-08-19T08:03:16;26.89;65.05
71206;SHT31;58935;54.498;18.544;2022-08-19T08:06:06;26.93;65.01
71206;SHT31;58935;54.498;18.544;2022-08-19T08:08:35;26.97;65.01
71206;SHT31;58935;54.498;18.544;2022-08-19T08:11:13;27.01;64.82
71206;SHT31;58935;54.498;18.544;2022-08-19T08:13:42;27.06;64.91
71206;SHT31;58935;54.498;18.544;2022-08-19T08:16:08;27.12;64.68
71206;SHT31;58935;54.498;18.544;2022-08-19T08:18:34;27.15;64.58
71206;SHT31;58935;54.498;18.544;2022-08-19T08:21:06;27.18;64.72
71206;SHT31;58935;54.498;18.544;2022-08-19T08:23:32;27.22;64.63
71206;SHT31;58935;54.498;18.544;2022-08-19T08:25:58;27.25;64.70
71206;SHT31;58935;54.498;18.544;2022-08-19T08:28:24;27.30;64.64
71206;SHT31;58935;54.498;18.544;2022-08-19T08:30:52;27.33;64.35
71206;SHT31;58935;54.498;18.544;2022-08-19T08:33:18;27.39;64.32
71206;SHT31;58935;54.498;18.544;2022-08-19T08:35:46;27.46;64.53
71206;SHT31;58935;54.498;18.544;2022-08-19T08:38:13;27.55;64.29
71206;SHT31;58935;54.498;18.544;2022-08-19T08:40:47;27.62;64.23
71206;SHT31;58935;54.498;18.544;2022-08-19T08:43:23;27.64;63.39
71206;SHT31;58935;54.498;18.544;2022-08-19T08:48:44;27.70;63.60
71206;SHT31;58935;54.498;18.544;2022-08-19T08:51:29;27.70;63.36
71206;SHT31;58935;54.498;18.544;2022-08-19T08:54:04;27.67;62.80
71206;SHT31;58935;54.498;18.544;2022-08-19T08:56:35;27.66;62.79
71206;SHT31;58935;54.498;18.544;2022-08-19T08:59:05;27.67;63.01
71206;SHT31;58935;54.498;18.544;2022-08-19T09:01:48;27.61;63.26
71206;SHT31;58935;54.498;18.544;2022-08-19T09:04:13;27.52;63.24
71206;SHT31;58935;54.498;18.544;2022-08-19T09:06:44;27.40;63.35
71206;SHT31;58935;54.498;18.544;2022-08-19T09:09:35;27.27;63.73
71206;SHT31;58935;54.498;18.544;2022-08-19T09:12:10;27.18;64.78
71206;SHT31;58935;54.498;18.544;2022-08-19T09:15:00;27.20;64.91
71206;SHT31;58935;54.498;18.544;2022-08-19T09:17:31;27.25;64.24
71206;SHT31;58935;54.498;18.544;2022-08-19T09:19:59;27.23;64.52
71206;SHT31;58935;54.498;18.544;2022-08-19T09:22:33;27.18;65.22
71206;SHT31;58935;54.498;18.544;2022-08-19T09:25:05;27.13;66.34
71206;SHT31;58935;54.498;18.544;2022-08-19T09:27:33;27.10;67.05
71206;SHT31;58935;54.498;18.544;2022-08-19T09:30:03;27.13;67.85
71206;SHT31;58935;54.498;18.544;2022-08-19T09:32:31;27.20;68.04
71206;SHT31;58935;54.498;18.544;2022-08-19T09:34:57;27.24;68.19
71206;SHT31;58935;54.498;18.544;2022-08-19T09:37:23;27.25;68.71
71206;SHT31;58935;54.498;18.544;2022-08-19T09:39:49;27.23;69.01
71206;SHT31;58935;54.498;18.544;2022-08-19T09:42:15;27.21;69.17
71206;SHT31;58935;54.498;18.544;2022-08-19T09:44:42;27.21;69.46
71206;SHT31;58935;54.498;18.544;2022-08-19T09:47:09;27.31;69.51
71206;SHT31;58935;54.498;18.544;2022-08-19T09:49:38;27.42;69.35
71206;SHT31;58935;54.498;18.544;2022-08-19T09:52:05;27.51;68.25
71206;SHT31;58935;54.498;18.544;2022-08-19T09:54:35;27.63;67.96
71206;SHT31;58935;54.498;18.544;2022-08-19T09:57:01;27.69;66.90
71206;SHT31;58935;54.498;18.544;2022-08-19T09:59:26;27.71;67.69
71206;SHT31;58935;54.498;18.544;2022-08-19T10:01:53;27.71;68.59
71206;SHT31;58935;54.498;18.544;2022-08-19T10:04:19;27.78;68.88
71206;SHT31;58935;54.498;18.544;2022-08-19T10:06:46;27.89;68.34
71206;SHT31;58935;54.498;18.544;2022-08-19T10:09:15;27.91;68.28
71206;SHT31;58935;54.498;18.544;2022-08-19T10:11:43;27.87;68.83
71206;SHT31;58935;54.498;18.544;2022-08-19T10:14:14;27.78;68.90
71206;SHT31;58935;54.498;18.544;2022-08-19T10:16:41;27.74;67.46
71206;SHT31;58935;54.498;18.544;2022-08-19T10:19:08;27.70;67.67
71206;SHT31;58935;54.498;18.544;2022-08-19T10:21:34;27.64;67.81
71206;SHT31;58935;54.498;18.544;2022-08-19T10:24:01;27.63;67.42
71206;SHT31;58935;54.498;18.544;2022-08-19T10:26:31;27.67;67.48
71206;SHT31;58935;54.498;18.544;2022-08-19T10:29:02;27.75;67.60
71206;SHT31;58935;54.498;18.544;2022-08-19T10:31:30;27.78;67.34
71206;SHT31;58935;54.498;18.544;2022-08-19T10:33:59;27.77;67.34
71206;SHT31;58935;54.498;18.544;2022-08-19T10:36:26;27.76;67.08
71206;SHT31;58935;54.498;18.544;2022-08-19T10:38:58;27.80;67.24
71206;SHT31;58935;54.498;18.544;2022-08-19T10:41:28;27.83;67.47
71206;SHT31;58935;54.498;18.544;2022-08-19T10:43:58;27.79;66.88
71206;SHT31;58935;54.498;18.544;2022-08-19T10:46:27;27.81;66.13
71206;SHT31;58935;54.498;18.544;2022-08-19T10:48:56;27.85;66.71
71206;SHT31;58935;54.498;18.544;2022-08-19T10:51:21;27.87;66.78
71206;SHT31;58935;54.498;18.544;2022-08-19T10:53:51;27.91;66.96
71206;SHT31;58935;54.498;18.544;2022-08-19T10:56:17;27.94;67.17
71206;SHT31;58935;54.498;18.544;2022-08-19T10:58:47;28.02;66.92
71206;SHT31;58935;54.498;18.544;2022-08-19T11:01:13;28.06;66.85
71206;SHT31;58935;54.498;18.544;2022-08-19T11:03:38;28.15;66.73
71206;SHT31;58935;54.498;18.544;2022-08-19T11:06:05;28.26;66.27
71206;SHT31;58935;54.498;18.544;2022-08-19T11:08:34;28.37;65.49
71206;SHT31;58935;54.498;18.544;2022-08-19T11:11:03;28.48;65.41
71206;SHT31;58935;54.498;18.544;2022-08-19T11:13:30;28.61;65.56
71206;SHT31;58935;54.498;18.544;2022-08-19T11:16:04;28.69;65.14
71206;SHT31;58935;54.498;18.544;2022-08-19T11:18:35;28.67;64.71
71206;SHT31;58935;54.498;18.544;2022-08-19T11:21:05;28.60;65.02
71206;SHT31;58935;54.498;18.544;2022-08-19T11:23:34;28.55;65.07
71206;SHT31;58935;54.498;18.544;2022-08-19T11:25:59;28.51;65.48
71206;SHT31;58935;54.498;18.544;2022-08-19T11:28:26;28.42;65.56
71206;SHT31;58935;54.498;18.544;2022-08-19T11:30:51;28.34;65.67
71206;SHT31;58935;54.498;18.544;2022-08-19T11:33:17;28.32;65.68
71206;SHT31;58935;54.498;18.544;2022-08-19T11:35:44;28.32;66.29
71206;SHT31;58935;54.498;18.544;2022-08-19T11:38:10;28.33;66.49
71206;SHT31;58935;54.498;18.544;2022-08-19T11:40:36;28.29;66.69
71206;SHT31;58935;54.498;18.544;2022-08-19T11:43:02;28.24;66.98
71206;SHT31;58935;54.498;18.544;2022-08-19T11:45:29;28.20;66.96
71206;SHT31;58935;54.498;18.544;2022-08-19T11:47:55;28.19;66.93
71206;SHT31;58935;54.498;18.544;2022-08-19T11:50:22;28.20;66.92
71206;SHT31;58935;54.498;18.544;2022-08-19T11:52:49;28.22;67.01
71206;SHT31;58935;54.498;18.544;2022-08-19T11:55:19;28.29;66.12
71206;SHT31;58935;54.498;18.544;2022-08-19T11:57:44;28.36;66.34
71206;SHT31;58935;54.498;18.544;2022-08-19T12:00:11;28.41;66.36
71206;SHT31;58935;54.498;18.544;2022-08-19T12:02:38;28.44;66.08
71206;SHT31;58935;54.498;18.544;2022-08-19T12:05:04;28.43;65.58
71206;SHT31;58935;54.498;18.544;2022-08-19T12:07:31;28.44;65.30
71206;SHT31;58935;54.498;18.544;2022-08-19T12:09:58;28.46;65.34
71206;SHT31;58935;54.498;18.544;2022-08-19T12:12:25;28.48;65.17
71206;SHT31;58935;54.498;18.544;2022-08-19T12:14:52;28.52;64.28
71206;SHT31;58935;54.498;18.544;2022-08-19T12:17:27;28.61;64.01
71206;SHT31;58935;54.498;18.544;2022-08-19T12:19:53;28.68;63.62
71206;SHT31;58935;54.498;18.544;2022-08-19T12:22:19;28.69;63.86
71206;SHT31;58935;54.498;18.544;2022-08-19T12:24:46;28.69;63.93
71206;SHT31;58935;54.498;18.544;2022-08-19T12:27:11;28.69;63.47
71206;SHT31;58935;54.498;18.544;2022-08-19T12:29:37;28.73;64.21
71206;SHT31;58935;54.498;18.544;2022-08-19T12:32:02;28.71;64.12
71206;SHT31;58935;54.498;18.544;2022-08-19T12:34:29;28.69;64.26
71206;SHT31;58935;54.498;18.544;2022-08-19T12:36:58;28.66;64.04
71206;SHT31;58935;54.498;18.544;2022-08-19T12:39:27;28.67;64.11
71206;SHT31;58935;54.498;18.544;2022-08-19T12:41:52;28.68;63.27
71206;SHT31;58935;54.498;18.544;2022-08-19T12:44:18;28.67;63.73
71206;SHT31;58935;54.498;18.544;2022-08-19T12:46:44;28.68;64.23
71206;SHT31;58935;54.498;18.544;2022-08-19T12:49:09;28.68;63.61
71206;SHT31;58935;54.498;18.544;2022-08-19T12:51:35;28.75;62.76
71206;SHT31;58935;54.498;18.544;2022-08-19T12:54:00;28.88;62.26
71206;SHT31;58935;54.498;18.544;2022-08-19T12:56:26;28.99;62.29
71206;SHT31;58935;54.498;18.544;2022-08-19T12:58:52;29.00;62.80
71206;SHT31;58935;54.498;18.544;2022-08-19T13:01:18;28.99;62.79
71206;SHT31;58935;54.498;18.544;2022-08-19T13:03:45;29.01;62.56
71206;SHT31;58935;54.498;18.544;2022-08-19T13:06:12;29.09;62.83
71206;SHT31;58935;54.498;18.544;2022-08-19T13:08:38;29.17;62.78
71206;SHT31;58935;54.498;18.544;2022-08-19T13:11:11;29.24;62.22
71206;SHT31;58935;54.498;18.544;2022-08-19T13:13:41;29.20;61.80
71206;SHT31;58935;54.498;18.544;2022-08-19T13:16:10;29.07;61.28
71206;SHT31;58935;54.498;18.544;2022-08-19T13:18:38;28.98;61.69
71206;SHT31;58935;54.498;18.544;2022-08-19T13:21:07;28.91;62.81
71206;SHT31;58935;54.498;18.544;2022-08-19T13:23:36;28.80;63.24
71206;SHT31;58935;54.498;18.544;2022-08-19T13:26:03;28.71;63.33
71206;SHT31;58935;54.498;18.544;2022-08-19T13:28:32;28.68;63.79
71206;SHT31;58935;54.498;18.544;2022-08-19T13:31:03;28.78;63.69
71206;SHT31;58935;54.498;18.544;2022-08-19T13:33:31;28.98;63.23
71206;SHT31;58935;54.498;18.544;2022-08-19T13:35:59;29.13;62.48
71206;SHT31;58935;54.498;18.544;2022-08-19T13:38:26;29.16;62.45
71206;SHT31;58935;54.498;18.544;2022-08-19T13:40:53;29.18;61.92
71206;SHT31;58935;54.498;18.544;2022-08-19T13:43:21;29.10;61.16
71206;SHT31;58935;54.498;18.544;2022-08-19T13:45:51;29.04;60.25
71206;SHT31;58935;54.498;18.544;2022-08-19T13:48:21;29.01;60.80
71206;SHT31;58935;54.498;18.544;2022-08-19T13:50:48;28.97;61.33
71206;SHT31;58935;54.498;18.544;2022-08-19T13:53:14;28.99;62.09
71206;SHT31;58935;54.498;18.544;2022-08-19T13:55:41;28.98;62.51
71206;SHT31;58935;54.498;18.544;2022-08-19T13:58:08;28.99;62.88
71206;SHT31;58935;54.498;18.544;2022-08-19T14:00:37;29.02;62.70
71206;SHT31;58935;54.498;18.544;2022-08-19T14:03:07;29.05;62.47
71206;SHT31;58935;54.498;18.544;2022-08-19T14:05:34;29.05;62.10
71206;SHT31;58935;54.498;18.544;2022-08-19T14:08:00;28.98;61.45
71206;SHT31;58935;54.498;18.544;2022-08-19T14:10:26;28.93;61.64
71206;SHT31;58935;54.498;18.544;2022-08-19T14:12:55;28.86;61.64
71206;SHT31;58935;54.498;18.544;2022-08-19T14:15:25;28.81;61.55
71206;SHT31;58935;54.498;18.544;2022-08-19T14:17:52;28.77;62.04
71206;SHT31;58935;54.498;18.544;2022-08-19T14:20:19;28.82;61.43
71206;SHT31;58935;54.498;18.544;2022-08-19T14:22:45;28.93;62.82
71206;SHT31;58935;54.498;18.544;2022-08-19T14:25:14;28.98;63.41
71206;SHT31;58935;54.498;18.544;2022-08-19T14:27:46;29.09;62.82
71206;SHT31;58935;54.498;18.544;2022-08-19T14:30:14;29.17;62.86
71206;SHT31;58935;54.498;18.544;2022-08-19T14:32:43;29.24;62.86
71206;SHT31;58935;54.498;18.544;2022-08-19T14:35:09;29.29;62.30
71206;SHT31;58935;54.498;18.544;2022-08-19T14:37:37;29.36;61.86
71206;SHT31;58935;54.498;18.544;2022-08-19T14:40:03;29.42;61.80
71206;SHT31;58935;54.498;18.544;2022-08-19T14:42:30;29.46;61.99
71206;SHT31;58935;54.498;18.544;2022-08-19T14:44:58;29.51;62.55
71206;SHT31;58935;54.498;18.544;2022-08-19T14:47:24;29.57;62.73
71206;SHT31;58935;54.498;18.544;2022-08-19T14:49:51;29.68;62.86
71206;SHT31;58935;54.498;18.544;2022-08-19T14:52:18;29.75;62.98
71206;SHT31;58935;54.498;18.544;2022-08-19T14:54:44;29.66;62.81
71206;SHT31;58935;54.498;18.544;2022-08-19T14:57:11;29.55;62.98
71206;SHT31;58935;54.498;18.544;2022-08-19T14:59:39;29.50;62.89
71206;SHT31;58935;54.498;18.544;2022-08-19T15:02:05;29.47;62.74
71206;SHT31;58935;54.498;18.544;2022-08-19T15:04:31;29.50;61.36
71206;SHT31;58935;54.498;18.544;2022-08-19T15:06:57;29.67;60.41
71206;SHT31;58935;54.498;18.544;2022-08-19T15:09:22;29.87;59.69
71206;SHT31;58935;54.498;18.544;2022-08-19T15:11:48;30.09;58.51
71206;SHT31;58935;54.498;18.544;2022-08-19T15:14:15;30.31;56.17
71206;SHT31;58935;54.498;18.544;2022-08-19T15:16:41;30.55;54.00
71206;SHT31;58935;54.498;18.544;2022-08-19T15:19:08;30.78;52.53
71206;SHT31;58935;54.498;18.544;2022-08-19T15:21:34;30.98;51.70
71206;SHT31;58935;54.498;18.544;2022-08-19T15:24:01;31.13;51.19
71206;SHT31;58935;54.498;18.544;2022-08-19T15:26:27;31.30;50.49
71206;SHT31;58935;54.498;18.544;2022-08-19T15:28:56;31.40;50.32